Time;durP1;ratioP1;P1;durP2;ratioP2;P2;SDS_P1;SDS_P2;PMS_P1;PMS_P2;Temp;Humidity;BMP_temperature;BMP_pressure;BME280_temperature;BME280_humidity;BME280_pressure;Samples;Min_cycle;Max_cycle;Signal;HPM_P1;HPM_P2
2023/09/06 00:00:37;;;;;;;9.43;7.07;;;;;;;-142.75;100.00;76050.66;5025693;28;20029;-62
2023/09/06 00:03:03;;;;;;;10.40;6.95;;;;;;;-142.75;100.00;76038.84;5025909;28;20068;-62
2023/09/06 00:05:29;;;;;;;8.88;6.00;;;;;;;-142.75;100.00;76058.53;5029833;28;20397;-62
2023/09/06 00:07:55;;;;;;;8.70;6.03;;;;;;;-142.75;100.00;76091.97;5024652;28;20523;-61
2023/09/06 00:10:20;;;;;;;9.07;6.75;;;;;;;-142.75;100.00;76090.00;5029769;28;20025;-62
2023/09/06 00:12:46;;;;;;;9.27;6.28;;;;;;;-142.75;100.00;76074.25;5025212;28;20522;-62
2023/09/06 00:15:12;;;;;;;10.40;6.28;;;;;;;-142.75;100.00;76066.41;5024951;28;20025;-62
2023/09/06 00:17:38;;;;;;;9.00;5.03;;;;;;;-142.75;100.00;76066.41;5033042;28;20549;-62
2023/09/06 00:20:20;;;;;;;8.30;5.50;;;;;;;-142.75;100.00;76088.03;5033752;28;20029;-62
2023/09/06 00:22:57;;;;;;;7.57;5.60;;;;;;;-142.75;100.00;76101.81;5024733;28;20484;-62
2023/09/06 00:25:24;;;;;;;8.00;5.68;;;;;;;-142.75;100.00;76111.66;5024376;28;20033;-62
2023/09/06 00:27:50;;;;;;;8.02;5.78;;;;;;;-142.75;100.00;76113.63;5026097;28;20029;-62
2023/09/06 00:30:18;;;;;;;9.07;5.60;;;;;;;-142.75;100.00;76131.34;5024757;28;20038;-61
2023/09/06 00:32:45;;;;;;;7.85;4.82;;;;;;;-142.75;100.00;76149.06;5024420;28;20028;-61
2023/09/06 00:35:11;;;;;;;6.78;4.30;;;;;;;-142.75;100.00;76164.81;5024436;28;20056;-62
2023/09/06 00:40:21;;;;;;;7.68;5.00;;;;;;;-142.75;100.00;76170.72;5598629;22;20403;-62
2023/09/06 00:42:50;;;;;;;7.25;5.78;;;;;;;-142.75;100.00;76162.84;5028401;28;20637;-62
2023/09/06 00:45:17;;;;;;;7.65;4.80;;;;;;;-142.75;100.00;76172.69;5032733;28;20033;-62
2023/09/06 00:47:44;;;;;;;6.93;4.65;;;;;;;-142.75;100.00;76180.56;5025282;28;20021;-62
2023/09/06 00:50:14;;;;;;;6.82;4.60;;;;;;;-142.75;100.00;76192.38;5024585;28;20031;-62
2023/09/06 00:52:41;;;;;;;9.23;5.75;;;;;;;-142.75;100.00;76190.41;5024917;28;20018;-61
2023/09/06 00:55:08;;;;;;;7.53;5.43;;;;;;;-142.75;100.00;76176.63;5029908;22;20077;-61
2023/09/06 00:57:33;;;;;;;8.18;5.32;;;;;;;-142.75;100.00;76168.75;5007316;28;20032;-62
2023/09/06 00:59:59;;;;;;;6.75;4.70;;;;;;;-142.75;100.00;76164.81;5012170;28;20038;-62
2023/09/06 01:02:27;;;;;;;7.65;5.43;;;;;;;-142.75;100.00;76160.88;5011927;28;20033;-61
2023/09/06 01:04:53;;;;;;;6.68;4.65;;;;;;;-142.75;100.00;76149.06;5022579;28;20505;-62
2023/09/06 01:07:22;;;;;;;7.82;5.05;;;;;;;-142.75;100.00;76149.06;5011042;28;20022;-62
2023/09/06 01:09:48;;;;;;;8.75;5.40;;;;;;;-142.75;100.00;76141.19;5004206;28;20038;-61
2023/09/06 01:12:14;;;;;;;5.47;4.45;;;;;;;-142.75;100.00;76156.94;5004607;28;20032;-60
2023/09/06 01:14:40;;;;;;;9.50;4.20;;;;;;;-142.75;100.00;76172.69;5004480;28;20061;-60
2023/09/06 01:17:09;;;;;;;5.75;4.38;;;;;;;-142.75;100.00;76184.50;5004753;28;20388;-61
2023/09/06 01:19:39;;;;;;;5.90;4.00;;;;;;;-142.75;100.00;76204.16;5004740;28;20026;-60
2023/09/06 01:22:10;;;;;;;7.20;4.68;;;;;;;-142.75;100.00;76210.06;5004860;28;20158;-55
2023/09/06 01:24:36;;;;;;;6.07;4.32;;;;;;;-142.75;100.00;76206.13;5004253;28;20030;-62
2023/09/06 01:27:04;;;;;;;10.05;4.72;;;;;;;-142.75;100.00;76243.53;5004446;28;20399;-61
2023/09/06 01:29:31;;;;;;;6.28;4.65;;;;;;;-142.75;100.00;76267.16;5003922;28;20033;-61
2023/09/06 01:31:56;;;;;;;7.82;4.55;;;;;;;-142.75;100.00;76261.25;5014044;28;20108;-61
2023/09/06 01:34:21;;;;;;;6.93;4.43;;;;;;;-142.75;100.00;76259.28;5023637;28;20127;-61
2023/09/06 01:36:47;;;;;;;7.18;4.80;;;;;;;-142.75;100.00;76269.13;5005927;28;20116;-61
2023/09/06 01:39:12;;;;;;;7.18;4.63;;;;;;;-142.75;100.00;76263.22;5002394;28;20028;-61
2023/09/06 01:41:38;;;;;;;8.65;5.32;;;;;;;-142.75;100.00;76269.13;5004110;28;20028;-61
2023/09/06 01:44:03;;;;;;;7.97;5.93;;;;;;;-142.75;100.00;76255.34;4986686;28;20029;-61
2023/09/06 01:46:29;;;;;;;7.63;5.60;;;;;;;-142.75;100.00;76245.50;5004126;28;20034;-61
2023/09/06 01:48:54;;;;;;;8.00;6.00;;;;;;;-142.75;100.00;76225.81;5004348;28;20037;-61
2023/09/06 01:51:19;;;;;;;8.80;5.63;;;;;;;-142.75;100.00;76219.91;5004683;28;20038;-61
2023/09/06 01:53:45;;;;;;;12.27;6.53;;;;;;;-142.75;100.00;76219.91;5003784;28;20093;-61
2023/09/06 01:56:10;;;;;;;8.75;6.03;;;;;;;-142.75;100.00;76233.69;5004045;28;20080;-61
2023/09/06 01:58:37;;;;;;;9.32;5.80;;;;;;;-142.75;100.00;76235.66;5004044;28;20108;-60
2023/09/06 02:01:05;;;;;;;9.15;6.22;;;;;;;-142.75;100.00;76233.69;5003930;28;20022;-61
2023/09/06 02:03:34;;;;;;;8.77;6.32;;;;;;;-142.75;100.00;76233.69;5003916;28;20120;-62
2023/09/06 02:06:01;;;;;;;9.38;6.10;;;;;;;-142.75;100.00;76237.63;5004015;28;20053;-61
2023/09/06 02:08:26;;;;;;;9.57;6.30;;;;;;;-142.75;100.00;76243.53;5003844;28;20021;-61
2023/09/06 02:10:51;;;;;;;10.63;7.30;;;;;;;-142.75;100.00;76243.53;5003687;28;20477;-61
2023/09/06 02:13:17;;;;;;;9.13;5.93;;;;;;;-142.75;100.00;76233.69;4986215;28;20029;-62
2023/09/06 02:15:42;;;;;;;9.18;5.90;;;;;;;-142.75;100.00;76239.59;5003565;28;20030;-61
2023/09/06 02:18:09;;;;;;;10.10;6.57;;;;;;;-142.75;100.00;76237.63;5008073;28;20029;-60
2023/09/06 02:20:35;;;;;;;7.32;5.40;;;;;;;-142.75;100.00;76239.59;5015084;28;20037;-62
2023/09/06 02:23:01;;;;;;;7.40;5.20;;;;;;;-142.75;100.00;76255.34;5027170;28;20030;-61
2023/09/06 02:25:31;;;;;;;9.98;4.75;;;;;;;-142.75;100.00;76251.41;5027002;28;20047;-61
2023/09/06 02:28:04;;;;;;;5.20;4.00;;;;;;;-142.75;100.00;76255.34;5026812;28;20021;-61
2023/09/06 02:30:30;;;;;;;8.63;5.68;;;;;;;-142.75;100.00;76263.22;5026676;28;20029;-61
2023/09/06 02:32:56;;;;;;;8.68;5.82;;;;;;;-142.75;100.00;76253.38;5026978;28;20028;-60
2023/09/06 02:35:21;;;;;;;9.77;6.00;;;;;;;-142.75;100.00;76247.47;5026918;28;20037;-61
2023/09/06 02:37:47;;;;;;;9.05;6.05;;;;;;;-142.75;100.00;76251.41;5026742;28;20031;-62
2023/09/06 02:40:13;;;;;;;10.93;5.90;;;;;;;-142.75;100.00;76235.66;5026552;28;20044;-61
2023/09/06 02:42:40;;;;;;;8.27;5.15;;;;;;;-142.75;100.00;76245.50;5026365;28;20018;-61
2023/09/06 02:45:09;;;;;;;7.05;5.40;;;;;;;-142.75;100.00;76257.31;5026522;28;20507;-61
2023/09/06 02:47:37;;;;;;;7.43;5.40;;;;;;;-142.75;100.00;76259.28;5026821;28;20032;-61
2023/09/06 02:50:05;;;;;;;8.05;5.70;;;;;;;-142.75;100.00;76263.22;5023209;28;20057;-54
2023/09/06 02:52:35;;;;;;;8.52;5.53;;;;;;;-142.75;100.00;76259.28;5007308;28;20084;-62
2023/09/06 02:55:05;;;;;;;8.82;5.75;;;;;;;-142.75;100.00;76267.16;5005434;28;20076;-61
2023/09/06 02:57:31;;;;;;;9.75;5.88;;;;;;;-142.75;100.00;76259.28;5006815;28;20430;-60
2023/09/06 02:59:57;;;;;;;7.70;5.68;;;;;;;-142.75;100.00;76267.16;5006547;28;20025;-61
2023/09/06 03:02:23;;;;;;;12.63;6.30;;;;;;;-142.75;100.00;76278.97;5006750;28;21464;-61
2023/09/06 03:04:54;;;;;;;8.27;5.95;;;;;;;-142.75;100.00;76265.19;5006433;28;20516;-61
2023/09/06 03:07:20;;;;;;;9.70;5.85;;;;;;;-142.75;100.00;76267.16;5006848;28;20109;-59
2023/09/06 03:09:45;;;;;;;7.38;5.82;;;;;;;-142.75;100.00;76253.38;4988732;28;20062;-60
2023/09/06 03:12:14;;;;;;;11.13;6.70;;;;;;;-142.75;100.00;76253.38;5006744;28;20030;-61
2023/09/06 03:14:44;;;;;;;9.73;6.13;;;;;;;-142.75;100.00;76245.50;5006542;28;20480;-61
2023/09/06 03:17:18;;;;;;;9.50;5.85;;;;;;;-142.75;100.00;76231.72;5006965;28;20041;-60
2023/09/06 03:19:45;;;;;;;8.48;6.25;;;;;;;-142.75;100.00;76227.78;5006901;28;20032;-60
2023/09/06 03:22:12;;;;;;;10.68;6.25;;;;;;;-142.75;100.00;76237.63;4989042;28;20037;-60
2023/09/06 03:24:41;;;;;;;8.07;5.85;;;;;;;-142.75;100.00;76237.63;5006215;28;20021;-60
2023/09/06 03:27:07;;;;;;;8.02;4.78;;;;;;;-142.75;100.00;76243.53;5006286;28;20049;-60
2023/09/06 03:29:38;;;;;;;7.90;4.38;;;;;;;-142.75;100.00;76255.34;5006085;28;20033;-61
2023/09/06 03:32:08;;;;;;;8.70;4.35;;;;;;;-142.75;100.00;76275.03;5005775;28;20025;-62
2023/09/06 03:34:34;;;;;;;7.10;3.60;;;;;;;-142.75;100.00;76286.84;5006150;28;20032;-59
2023/09/06 03:37:00;;;;;;;5.07;3.33;;;;;;;-142.75;100.00;76306.53;5021967;28;20029;-60
2023/09/06 03:39:29;;;;;;;7.43;3.63;;;;;;;-142.75;100.00;76332.13;5025367;28;20064;-60
2023/09/06 03:41:57;;;;;;;8.95;4.57;;;;;;;-142.75;100.00;76334.09;5025658;28;20039;-60
2023/09/06 03:44:24;;;;;;;7.45;4.00;;;;;;;-142.75;100.00;76369.50;5025502;28;20582;-60
2023/09/06 03:46:51;;;;;;;6.43;3.53;;;;;;;-142.75;100.00;76365.56;5025728;28;20033;-60
2023/09/06 03:49:17;;;;;;;5.18;3.67;;;;;;;-142.75;100.00;76371.47;5025647;28;20512;-61
2023/09/06 03:51:42;;;;;;;6.80;4.25;;;;;;;-142.75;100.00;76379.34;5025915;28;20080;-59
2023/09/06 03:54:09;;;;;;;5.32;3.95;;;;;;;-142.75;100.00;76375.41;5025485;28;20028;-60
2023/09/06 03:56:38;;;;;;;6.20;4.68;;;;;;;-142.75;100.00;76363.59;5018326;28;20025;-60
2023/09/06 03:59:04;;;;;;;7.30;4.40;;;;;;;-142.75;100.00;76367.53;5007318;28;20083;-60
2023/09/06 04:01:32;;;;;;;6.57;4.75;;;;;;;-142.75;100.00;76363.59;5007521;28;20172;-54
2023/09/06 04:04:00;;;;;;;6.40;4.78;;;;;;;-142.75;100.00;76353.78;5024850;28;20416;-61
2023/09/06 04:06:28;;;;;;;8.95;5.78;;;;;;;-142.75;100.00;76320.31;5025096;28;20028;-63
2023/09/06 04:08:54;;;;;;;8.93;5.07;;;;;;;-142.75;100.00;76306.53;5024858;28;20171;-61
2023/09/06 04:11:20;;;;;;;10.13;5.22;;;;;;;-142.75;100.00;76304.56;5024866;28;20037;-60
2023/09/06 04:13:45;;;;;;;7.32;5.30;;;;;;;-142.75;100.00;76298.66;5024812;28;20403;-60
2023/09/06 04:16:10;;;;;;;6.75;5.35;;;;;;;-142.75;100.00;76298.66;5024996;28;20049;-61
2023/09/06 04:18:36;;;;;;;9.00;5.70;;;;;;;-142.75;100.00;76294.72;5025330;28;20486;-59
2023/09/06 04:21:07;;;;;;;8.98;5.40;;;;;;;-142.75;100.00;76284.88;5024955;28;20121;-59
2023/09/06 04:23:33;;;;;;;10.75;5.45;;;;;;;-142.75;100.00;76271.09;5007524;28;20071;-55
2023/09/06 04:26:00;;;;;;;10.05;5.13;;;;;;;-142.75;100.00;76265.19;5024808;28;20479;-61
2023/09/06 04:28:25;;;;;;;13.43;5.18;;;;;;;-142.75;100.00;76275.03;5024770;28;20021;-60
2023/09/06 04:30:52;;;;;;;7.93;5.07;;;;;;;-142.75;100.00;76267.16;5024193;28;20537;-61
2023/09/06 04:33:17;;;;;;;9.30;5.03;;;;;;;-142.75;100.00;76275.03;5024461;28;20556;-61
2023/09/06 04:35:45;;;;;;;6.75;4.60;;;;;;;-142.75;100.00;76267.16;5024430;28;20025;-59
2023/09/06 04:38:12;;;;;;;9.02;5.30;;;;;;;-142.75;100.00;76269.13;5024651;28;20030;-61
2023/09/06 04:40:38;;;;;;;9.80;5.00;;;;;;;-142.75;100.00;76263.22;5023847;28;20029;-58
2023/09/06 04:43:07;;;;;;;7.47;5.07;;;;;;;-142.75;100.00;76269.13;5024551;28;20021;-61
2023/09/06 04:45:33;;;;;;;12.93;5.38;;;;;;;-142.75;100.00;76273.06;5024080;28;20029;-61
2023/09/06 04:47:59;;;;;;;7.65;5.25;;;;;;;-142.75;100.00;76275.03;5024833;28;20028;-61
2023/09/06 04:50:24;;;;;;;7.97;4.55;;;;;;;-142.75;100.00;76290.78;5024368;28;20392;-60
2023/09/06 04:52:53;;;;;;;8.90;5.40;;;;;;;-142.75;100.00;76296.69;5024807;28;20021;-61
2023/09/06 04:55:19;;;;;;;7.80;4.68;;;;;;;-142.75;100.00;76290.78;5024019;28;20116;-61
2023/09/06 04:57:46;;;;;;;9.55;5.78;;;;;;;-142.75;100.00;76294.72;5024276;28;20025;-61
2023/09/06 05:00:30;;;;;;;9.05;5.63;;;;;;;-142.75;100.00;76304.56;5023971;28;20028;-61
2023/09/06 05:02:57;;;;;;;8.85;5.50;;;;;;;-142.75;100.00;76306.53;5004413;28;20064;-62
2023/09/06 05:05:22;;;;;;;8.10;5.80;;;;;;;-142.75;100.00;76288.81;5004482;28;20033;-61
2023/09/06 05:07:48;;;;;;;6.97;5.20;;;;;;;-142.75;100.00;76278.97;5004481;28;20029;-61
2023/09/06 05:10:13;;;;;;;9.30;5.57;;;;;;;-142.75;100.00;76288.81;4986826;28;20030;-61
2023/09/06 05:12:39;;;;;;;10.20;5.10;;;;;;;-142.75;100.00;76278.97;5004308;28;20026;-62
2023/09/06 05:15:05;;;;;;;8.98;5.95;;;;;;;-142.75;100.00;76290.78;5004508;28;20108;-63
2023/09/06 05:17:32;;;;;;;10.05;6.05;;;;;;;-142.75;100.00;76286.84;5004783;28;20045;-62
2023/09/06 05:20:25;;;;;;;9.70;5.53;;;;;;;-142.75;100.00;76280.94;5003578;28;20049;-62
2023/09/06 05:22:50;;;;;;;13.45;5.85;;;;;;;-142.75;100.00;76294.72;5004606;28;20018;-60
2023/09/06 05:25:15;;;;;;;11.10;5.65;;;;;;;-142.75;100.00;76284.88;5004058;28;20511;-61
2023/09/06 05:27:41;;;;;;;7.40;4.93;;;;;;;-142.75;100.00;76282.91;5004357;28;20397;-61
2023/09/06 05:30:07;;;;;;;6.35;3.90;;;;;;;-142.75;100.00;76277.00;5004104;28;20026;-61
2023/09/06 05:32:32;;;;;;;4.40;2.80;;;;;;;-142.75;100.00;76290.78;5004374;28;20029;-63
2023/09/06 05:34:57;;;;;;;8.75;5.10;;;;;;;-142.75;100.00;76286.84;5004349;28;20045;-60
2023/09/06 05:37:24;;;;;;;11.57;5.22;;;;;;;-142.75;100.00;76273.06;5004378;28;20026;-61
2023/09/06 05:39:50;;;;;;;7.30;5.45;;;;;;;-142.75;100.00;76261.25;5003564;28;20396;-62
2023/09/06 05:42:16;;;;;;;10.52;5.78;;;;;;;-142.75;100.00;76247.47;5004152;28;20125;-61
2023/09/06 05:44:41;;;;;;;8.25;5.35;;;;;;;-142.75;100.00;76237.63;5020892;28;20104;-61
2023/09/06 05:47:07;;;;;;;7.93;5.40;;;;;;;-142.75;100.00;76239.59;5023538;28;20037;-63
2023/09/06 05:49:32;;;;;;;9.65;5.80;;;;;;;-142.75;100.00;76225.81;5023948;28;20488;-61
2023/09/06 05:51:57;;;;;;;12.52;5.88;;;;;;;-142.75;100.00;76215.97;5025589;28;20135;-62
2023/09/06 05:54:22;;;;;;;11.73;5.53;;;;;;;-142.75;100.00;76215.97;5027216;28;20480;-62
2023/09/06 05:56:48;;;;;;;15.60;6.07;;;;;;;-142.75;100.00;76212.03;5027448;28;20548;-62
2023/09/06 05:59:14;;;;;;;7.40;5.53;;;;;;;-142.75;100.00;76212.03;5023345;28;20021;-61
2023/09/06 06:01:41;;;;;;;9.93;5.78;;;;;;;-142.75;100.00;76219.91;5008015;28;20026;-62
2023/09/06 06:04:06;;;;;;;10.93;5.93;;;;;;;-142.75;100.00;76198.28;5007666;28;20560;-62
2023/09/06 06:06:31;;;;;;;9.30;5.25;;;;;;;-142.75;100.00;76186.47;5007687;28;20030;-62
2023/09/06 06:08:57;;;;;;;7.95;5.88;;;;;;;-142.75;100.00;76162.84;5007319;28;20054;-62
2023/09/06 06:11:22;;;;;;;9.63;6.07;;;;;;;-142.75;100.00;76164.81;4990292;28;20429;-61
2023/09/06 06:13:48;;;;;;;7.40;3.70;;;;;;;-142.75;100.00;76160.88;5007554;28;20491;-62
2023/09/06 06:16:14;;;;;;;6.15;4.63;;;;;;;-142.75;100.00;76141.19;5007517;28;20030;-61
2023/09/06 06:18:40;;;;;;;11.30;6.07;;;;;;;-142.75;100.00;76115.59;5007969;28;20480;-61
2023/09/06 06:21:05;;;;;;;11.18;6.07;;;;;;;-142.75;100.00;76097.88;5007576;28;20108;-61
2023/09/06 06:23:30;;;;;;;8.70;5.85;;;;;;;-142.75;100.00;76080.16;5007774;28;20396;-62
2023/09/06 06:25:56;;;;;;;9.75;5.88;;;;;;;-142.75;100.00;76060.50;5006032;28;20030;-58
2023/09/06 06:28:21;;;;;;;8.80;5.18;;;;;;;-142.75;100.00;76054.59;5001168;28;20029;-62
2023/09/06 06:30:46;;;;;;;8.32;5.22;;;;;;;-142.75;100.00;76042.78;5026986;28;20036;-61
2023/09/06 06:33:12;;;;;;;9.18;5.32;;;;;;;-142.75;100.00;76036.88;5027044;28;20021;-62
2023/09/06 06:35:38;;;;;;;11.70;5.53;;;;;;;-142.75;100.00;76023.09;5026801;28;20112;-61
2023/09/06 06:38:04;;;;;;;8.07;5.47;;;;;;;-142.75;100.00;76080.16;5026765;28;20029;-59
2023/09/06 06:40:30;;;;;;;8.48;5.60;;;;;;;-142.75;100.00;76052.63;5026691;28;20017;-61
2023/09/06 06:42:55;;;;;;;11.30;5.78;;;;;;;-142.75;100.00;76030.97;5026625;28;20047;-62
2023/09/06 06:45:21;;;;;;;10.68;5.60;;;;;;;-142.75;100.00;76021.13;5026725;28;20029;-62
2023/09/06 06:47:46;;;;;;;11.15;5.88;;;;;;;-142.75;100.00;76005.38;5008685;28;20147;-62
2023/09/06 06:50:11;;;;;;;8.50;5.03;;;;;;;-142.75;100.00;76019.16;5007565;28;20037;-62
2023/09/06 06:52:43;;;;;;;9.63;5.60;;;;;;;-142.75;100.00;75997.50;5007394;28;20032;-62
2023/09/06 06:55:10;;;;;;;14.70;5.95;;;;;;;-142.75;100.00;75983.72;5006791;28;20516;-62
2023/09/06 06:57:35;;;;;;;7.85;4.95;;;;;;;-142.75;100.00;75967.97;5007440;28;20028;-61
2023/09/06 07:00:05;;;;;;;8.43;5.70;;;;;;;-142.75;100.00;75952.25;5006527;28;20025;-63
2023/09/06 07:02:31;;;;;;;7.95;5.72;;;;;;;-142.75;100.00;75932.56;5006525;28;20551;-62
2023/09/06 07:04:57;;;;;;;10.73;5.63;;;;;;;-142.75;100.00;75924.69;5006630;28;20179;-62
2023/09/06 07:07:23;;;;;;;8.40;5.32;;;;;;;-142.75;100.00;75948.31;5026168;28;20087;-62
2023/09/06 07:09:49;;;;;;;7.93;5.03;;;;;;;-142.75;100.00;75952.25;5025854;28;20120;-63
2023/09/06 07:12:14;;;;;;;8.75;5.45;;;;;;;-142.75;100.00;75944.38;5014630;28;20137;-63
2023/09/06 07:14:40;;;;;;;8.23;5.55;;;;;;;-142.75;100.00;75956.19;5006571;28;20032;-62
2023/09/06 07:17:05;;;;;;;7.47;5.13;;;;;;;-142.75;100.00;75946.34;5006531;28;20026;-60
2023/09/06 07:19:30;;;;;;;12.88;6.47;;;;;;;-142.75;100.00;75912.88;5006973;28;20056;-64
2023/09/06 07:21:56;;;;;;;8.05;5.25;;;;;;;-142.75;100.00;75916.81;5006499;28;20531;-63
2023/09/06 07:24:21;;;;;;;7.50;5.35;;;;;;;-142.75;100.00;75903.03;5005935;28;20068;-62
2023/09/06 07:26:48;;;;;;;13.55;4.90;;;;;;;-142.75;100.00;75934.53;5006239;28;20030;-65
2023/09/06 07:29:13;;;;;;;7.05;5.20;;;;;;;-142.75;100.00;75897.13;4988825;28;20370;-62
2023/09/06 07:31:39;;;;;;;8.40;5.05;;;;;;;-142.75;100.00;75881.38;5006351;28;20047;-63
2023/09/06 07:34:04;;;;;;;10.02;5.88;;;;;;;-142.75;100.00;75889.25;5006216;28;20157;-63
2023/09/06 07:36:30;;;;;;;7.85;5.55;;;;;;;-142.75;100.00;75881.38;4988445;28;20163;-63
2023/09/06 07:38:57;;;;;;;8.60;5.00;;;;;;;-142.75;100.00;75871.53;5005670;28;20105;-63
2023/09/06 07:41:22;;;;;;;8.07;5.53;;;;;;;-142.75;100.00;75871.53;5006154;28;20036;-63
2023/09/06 07:43:48;;;;;;;8.88;5.72;;;;;;;-142.75;100.00;75849.91;5005925;28;20038;-64
2023/09/06 07:46:13;;;;;;;10.90;6.40;;;;;;;-142.75;100.00;75840.06;5005664;28;20157;-64
2023/09/06 07:48:38;;;;;;;8.85;5.20;;;;;;;-142.75;100.00;75816.44;5014607;28;20033;-63
2023/09/06 07:51:04;;;;;;;8.13;5.85;;;;;;;-142.75;100.00;75810.53;5025798;28;20026;-63
2023/09/06 07:53:30;;;;;;;9.20;5.85;;;;;;;-142.75;100.00;75794.78;5008155;28;20029;-66
2023/09/06 07:55:56;;;;;;;11.10;5.95;;;;;;;-142.75;100.00;75786.91;5025129;28;20018;-64
2023/09/06 07:58:22;;;;;;;8.50;6.28;;;;;;;-142.75;100.00;75773.13;5025239;28;20037;-64
2023/09/06 08:00:49;;;;;;;10.38;5.10;;;;;;;-142.75;100.00;75723.94;5025135;28;20055;-63
2023/09/06 08:03:14;;;;;;;8.30;5.50;;;;;;;-142.75;100.00;75710.16;5025219;28;20122;-63
2023/09/06 08:05:40;;;;;;;8.25;5.93;;;;;;;-142.75;100.00;75686.53;5024833;28;20112;-63
2023/09/06 08:08:08;;;;;;;9.23;6.10;;;;;;;-142.75;100.00;75692.44;5025304;28;20122;-64
2023/09/06 08:10:35;;;;;;;8.13;5.63;;;;;;;-142.75;100.00;75660.97;5016623;28;20034;-64
2023/09/06 08:13:00;;;;;;;9.57;5.38;;;;;;;-142.75;100.00;75629.47;5025268;28;20029;-67
2023/09/06 08:15:25;;;;;;;9.60;6.53;;;;;;;-142.75;100.00;75627.50;5020498;28;20500;-63
2023/09/06 08:17:51;;;;;;;8.20;5.93;;;;;;;-142.75;100.00;75613.72;5012883;28;20120;-63
2023/09/06 08:20:17;;;;;;;8.30;5.97;;;;;;;-142.75;100.00;75586.19;5013749;28;20551;-63
2023/09/06 08:22:45;;;;;;;9.38;6.35;;;;;;;-142.75;100.00;75582.25;5005829;28;20057;-65
2023/09/06 08:25:12;;;;;;;11.18;6.30;;;;;;;-142.75;100.00;75572.41;5003930;28;20029;-63
2023/09/06 08:27:37;;;;;;;10.07;5.90;;;;;;;-142.75;100.00;75550.75;5003880;28;20033;-64
2023/09/06 08:30:04;;;;;;;9.63;5.78;;;;;;;-142.75;100.00;75546.81;5004011;28;20030;-64
2023/09/06 08:32:30;;;;;;;9.77;6.05;;;;;;;-142.75;100.00;75558.63;5005752;28;20030;-63
2023/09/06 08:34:55;;;;;;;9.43;6.28;;;;;;;-142.75;100.00;75552.72;5004035;28;20037;-64
2023/09/06 08:37:20;;;;;;;23.20;6.53;;;;;;;-142.75;100.00;75550.75;5004476;28;20378;-63
2023/09/06 08:39:46;;;;;;;9.00;5.90;;;;;;;-142.75;100.00;75533.03;5004198;28;20131;-63
2023/09/06 08:42:11;;;;;;;9.68;5.45;;;;;;;-142.75;100.00;75507.47;5004365;28;20030;-64
2023/09/06 08:44:37;;;;;;;11.13;5.32;;;;;;;-142.75;100.00;75505.50;5004052;28;20029;-64
2023/09/06 08:47:08;;;;;;;9.55;5.38;;;;;;;-142.75;100.00;75511.41;5012854;28;20049;-64
2023/09/06 08:49:35;;;;;;;8.30;5.55;;;;;;;-142.75;100.00;75521.22;5024465;28;20392;-64
2023/09/06 08:52:02;;;;;;;10.45;5.10;;;;;;;-142.75;100.00;75546.81;5024746;28;20017;-64
2023/09/06 08:54:28;;;;;;;10.50;4.82;;;;;;;-142.75;100.00;75548.78;5024458;28;20021;-64
2023/09/06 08:56:55;;;;;;;8.80;4.47;;;;;;;-142.75;100.00;75538.94;5024959;28;20025;-65
2023/09/06 08:59:20;;;;;;;6.70;4.57;;;;;;;-142.75;100.00;75535.00;5009241;28;20574;-63
2023/09/06 09:01:46;;;;;;;7.00;4.40;;;;;;;-142.75;100.00;75523.19;5003716;28;20033;-64
2023/09/06 09:04:12;;;;;;;8.85;4.88;;;;;;;-142.75;100.00;75529.09;5004585;28;20058;-64
2023/09/06 09:06:46;;;;;;;7.63;4.80;;;;;;;-142.75;100.00;75511.41;5005075;28;20060;-64
2023/09/06 09:09:17;;;;;;;6.72;4.43;;;;;;;-142.75;100.00;75503.53;5005225;28;20029;-63
2023/09/06 09:11:49;;;;;;;6.70;4.82;;;;;;;-142.75;100.00;75491.72;5005316;28;20033;-61
2023/09/06 09:14:22;;;;;;;7.32;5.10;;;;;;;-142.75;100.00;75517.28;5005041;28;20033;-61
2023/09/06 09:16:58;;;;;;;8.63;4.82;;;;;;;-142.75;100.00;75519.25;5005573;28;20537;-62
2023/09/06 09:19:23;;;;;;;;;;;;;;;-142.75;100.00;75503.53;5006436;28;20034;-62
2023/09/06 09:21:50;;;;;;;6.95;4.68;;;;;;;-142.75;100.00;75501.56;5005123;28;20012;-62
2023/09/06 09:24:29;;;;;;;12.00;4.43;;;;;;;-142.75;100.00;75481.88;5005053;28;20022;-62
2023/09/06 09:26:59;;;;;;;7.72;4.10;;;;;;;-142.75;100.00;75472.03;5005007;28;20032;-62
2023/09/06 09:29:27;;;;;;;6.97;4.10;;;;;;;-142.75;100.00;75497.63;5003943;28;20057;-62
2023/09/06 09:31:52;;;;;;;7.25;4.18;;;;;;;-142.75;100.00;75450.38;5004873;28;20701;-62
2023/09/06 09:34:18;;;;;;;10.43;4.10;;;;;;;-142.75;100.00;75416.94;5004513;28;20042;-65
2023/09/06 09:36:52;;;;;;;6.57;3.50;;;;;;;-142.75;100.00;75377.56;5004938;28;20045;-64
2023/09/06 09:39:19;;;;;;;8.00;3.53;;;;;;;-142.75;100.00;75348.06;5004972;28;20036;-62
2023/09/06 09:41:44;;;;;;;6.15;3.78;;;;;;;-142.75;96.34;75322.47;5004727;28;20041;-62
2023/09/06 09:44:19;;;;;;;6.28;3.33;;;;;;;-142.75;98.71;75277.22;4987916;28;20029;-62
2023/09/06 09:46:45;;;;;;;6.20;3.95;;;;;;;-142.75;98.45;75253.59;5004268;28;20097;-63
2023/09/06 09:49:12;;;;;;;8.20;4.10;;;;;;;-142.75;97.96;75251.63;5005649;28;20600;-64
2023/09/06 09:51:40;;;;;;;7.82;3.88;;;;;;;-142.75;96.86;75229.97;5005814;28;20040;-63
2023/09/06 09:54:06;;;;;;;5.85;4.10;;;;;;;-142.75;94.87;75210.31;5005344;28;20121;-63
2023/09/06 09:56:37;;;;;;;6.30;3.80;;;;;;;-142.75;95.12;75194.56;5005157;28;20026;-63
2023/09/06 09:59:04;;;;;;;7.05;4.32;;;;;;;-142.75;91.06;75159.16;5022754;28;20047;-63
2023/09/06 10:01:34;;;;;;;6.60;4.20;;;;;;;-142.75;92.48;75139.47;5002062;28;20048;-63
2023/09/06 10:04:06;;;;;;;7.40;4.57;;;;;;;-142.75;93.79;75111.91;4998768;28;20036;-63
2023/09/06 10:06:32;;;;;;;12.10;4.88;;;;;;;-142.75;91.42;75113.88;5013862;28;20112;-64
2023/09/06 10:09:00;;;;;;;7.80;4.28;;;;;;;-142.75;92.02;75131.59;5004942;28;20485;-63
2023/09/06 10:11:26;;;;;;;7.85;4.50;;;;;;;-142.75;91.93;75157.19;5005268;28;20057;-63
2023/09/06 10:13:52;;;;;;;7.05;4.38;;;;;;;-142.75;92.23;75151.28;5004948;28;20104;-63
2023/09/06 10:16:21;;;;;;;6.22;4.15;;;;;;;-142.75;90.44;75165.03;5005106;28;20026;-63
2023/09/06 10:18:48;;;;;;;5.72;3.95;;;;;;;-142.75;91.07;75174.88;5005021;28;20029;-63
2023/09/06 10:21:15;;;;;;;12.60;5.03;;;;;;;-142.75;88.65;75206.38;5005639;28;20029;-63
2023/09/06 10:23:43;;;;;;;11.65;4.72;;;;;;;-142.75;89.59;75206.38;5005105;28;20026;-63
2023/09/06 10:26:09;;;;;;;9.75;4.13;;;;;;;-142.75;91.10;75192.59;4987471;28;20109;-63
2023/09/06 10:28:35;;;;;;;5.35;3.63;;;;;;;-142.75;89.75;75176.84;5022710;28;20156;-62
2023/09/06 10:31:07;;;;;;;7.35;4.45;;;;;;;-142.75;86.41;75161.13;5024604;28;20029;-63
2023/09/06 10:33:35;;;;;;;6.05;4.25;;;;;;;-142.75;86.20;75163.09;5024629;28;20072;-63
2023/09/06 10:36:09;;;;;;;13.18;4.68;;;;;;;-142.75;89.23;75165.03;5014373;28;20132;-63
2023/09/06 10:38:53;;;;;;;14.68;5.60;;;;;;;-142.75;88.93;75192.59;5007163;28;20033;-63
2023/09/06 10:41:20;;;;;;;8.80;5.03;;;;;;;-142.75;89.71;75204.41;5024456;28;20029;-63
2023/09/06 10:43:48;;;;;;;12.32;4.78;;;;;;;-142.75;91.32;75188.66;5010079;28;20635;-63
2023/09/06 10:46:13;;;;;;;10.30;4.60;;;;;;;-142.75;89.99;75133.56;5028223;28;20450;-64
2023/09/06 10:48:39;;;;;;;8.98;5.18;;;;;;;-142.75;88.77;75157.19;5028200;28;20025;-63
2023/09/06 10:51:12;;;;;;;5.53;3.70;;;;;;;-142.75;87.59;75125.69;5028250;28;20025;-62
2023/09/06 10:53:40;;;;;;;5.85;3.80;;;;;;;-142.75;88.74;75121.75;5020714;28;20022;-62
2023/09/06 10:56:06;;;;;;;10.20;5.20;;;;;;;-142.75;88.70;75123.72;5008050;28;20105;-62
2023/09/06 10:58:36;;;;;;;11.98;4.90;;;;;;;-142.75;91.12;75117.81;5008111;28;20041;-62
2023/09/06 11:01:17;;;;;;;9.05;5.40;;;;;;;-142.75;90.07;75129.63;5007874;28;20022;-62
2023/09/06 11:03:58;;;;;;;8.60;5.05;;;;;;;-142.75;88.59;75139.47;4990562;28;20418;-62
2023/09/06 11:06:24;;;;;;;7.65;4.22;;;;;;;-142.75;86.78;75151.28;5007996;28;20021;-62
2023/09/06 11:08:50;;;;;;;11.85;5.50;;;;;;;-142.75;87.04;75161.13;5007153;28;20560;-62
2023/09/06 11:11:15;;;;;;;7.18;4.05;;;;;;;-142.75;91.13;75137.50;5007346;28;20034;-61